Time;durP1;ratioP1;P1;durP2;ratioP2;P2;SDS_P1;SDS_P2;PMS_P1;PMS_P2;Temp;Humidity;BMP_temperature;BMP_pressure;BME280_temperature;BME280_humidity;BME280_pressure;Samples;Min_cycle;Max_cycle;Signal;HPM_P1;HPM_P2
2022/02/18 00:00:35;;;;;;;;;12.25;6.25;;;;;13.89;54.45;101266.28;2393166;28;45368;-83
2022/02/18 00:01:46;;;;;;;;;9.00;5.25;;;;;13.89;54.66;101266.28;2392142;28;46339;-83
2022/02/18 00:02:56;;;;;;;;;8.50;6.25;;;;;13.88;54.20;101263.72;2392852;28;45288;-83
2022/02/18 00:04:06;;;;;;;;;11.00;7.00;;;;;13.89;54.43;101266.28;2392889;28;45357;-83
2022/02/18 00:05:17;;;;;;;;;10.25;6.50;;;;;13.87;54.39;101257.56;2401747;28;45279;-83
2022/02/18 00:06:27;;;;;;;;;8.75;6.00;;;;;13.87;54.49;101251.41;2395858;28;46203;-83
2022/02/18 00:07:37;;;;;;;;;8.75;4.75;;;;;13.85;54.69;101251.50;2392601;28;45302;-83
2022/02/18 00:08:48;;;;;;;;;8.75;6.00;;;;;13.86;54.83;101239.97;2393033;28;45317;-83
2022/02/18 00:09:58;;;;;;;;;7.75;5.75;;;;;13.86;54.57;101241.75;2394355;28;45218;-83
2022/02/18 00:11:08;;;;;;;;;9.00;5.75;;;;;13.85;54.50;101246.22;2392796;28;45347;-82
2022/02/18 00:12:19;;;;;;;;;9.50;6.25;;;;;13.87;54.66;101247.00;2399094;28;45183;-82
2022/02/18 00:13:29;;;;;;;;;9.25;7.50;;;;;13.86;55.06;101244.41;2392852;28;45301;-82
2022/02/18 00:14:40;;;;;;;;;7.25;6.25;;;;;13.87;55.40;101244.34;2393072;28;44568;-82
2022/02/18 00:15:50;;;;;;;;;9.75;7.25;;;;;13.89;54.92;101244.28;2392970;28;46148;-83
2022/02/18 00:17:00;;;;;;;;;7.75;6.00;;;;;13.87;55.19;101231.16;2393247;28;45226;-83
2022/02/18 00:18:11;;;;;;;;;12.50;6.75;;;;;13.92;55.08;101239.75;2392872;28;45265;-83
2022/02/18 00:19:22;;;;;;;;;6.50;5.50;;;;;13.89;55.13;101234.59;2393153;28;45260;-83
2022/02/18 00:20:34;;;;;;;;;6.25;5.25;;;;;13.89;54.90;101231.06;2392647;28;46282;-85
2022/02/18 00:21:44;;;;;;;;;12.00;5.25;;;;;13.88;55.09;101232.00;2394485;28;45236;-84
2022/02/18 00:22:56;;;;;;;;;11.00;7.75;;;;;13.87;55.12;101223.22;2394407;28;45467;-85
2022/02/18 00:24:06;;;;;;;;;10.50;6.50;;;;;13.85;55.29;101206.56;2392282;28;45324;-84
2022/02/18 00:25:17;;;;;;;;;11.00;6.25;;;;;13.86;55.22;101215.34;2385455;28;48140;-84
2022/02/18 00:26:27;;;;;;;;;5.50;4.50;;;;;13.89;55.46;101213.44;2385275;28;45390;-84
2022/02/18 00:27:38;;;;;;;;;6.75;5.00;;;;;13.90;55.44;101206.38;2385548;28;47096;-84
2022/02/18 00:28:50;;;;;;;;;8.00;5.75;;;;;13.90;55.64;101203.75;2387998;28;45296;-84
2022/02/18 00:30:01;;;;;;;;;6.50;5.00;;;;;13.88;55.75;101206.44;2393621;28;46612;-83
2022/02/18 00:31:12;;;;;;;;;9.00;6.50;;;;;13.87;55.76;101204.72;2393032;28;45239;-84
2022/02/18 00:32:23;;;;;;;;;9.50;6.75;;;;;13.86;55.98;101203.00;2397315;28;45438;-84
2022/02/18 00:33:33;;;;;;;;;9.75;8.00;;;;;13.88;56.20;101205.59;2393090;28;45412;-84
2022/02/18 00:34:44;;;;;;;;;10.00;8.25;;;;;13.85;55.80;101206.56;2393387;28;46274;-84
2022/02/18 00:35:54;;;;;;;;;7.50;6.50;;;;;13.85;56.11;101206.56;2394311;28;45377;-83
2022/02/18 00:37:05;;;;;;;;;9.75;6.75;;;;;13.89;56.16;101212.56;2394542;28;45344;-85
2022/02/18 00:38:15;;;;;;;;;5.00;5.00;;;;;13.86;56.01;101197.72;2394675;28;45348;-84
2022/02/18 00:39:26;;;;;;;;;7.75;5.25;;;;;13.89;56.22;101196.72;2394472;28;45463;-84
2022/02/18 00:40:37;;;;;;;;;9.25;7.00;;;;;13.88;56.31;101197.66;2394372;28;44746;-85
2022/02/18 00:41:47;;;;;;;;;7.50;5.50;;;;;13.86;56.20;101203.00;2395243;28;45610;-84
2022/02/18 00:42:57;;;;;;;;;8.75;6.00;;;;;13.85;55.91;101190.72;2396560;28;45325;-85
2022/02/18 00:44:09;;;;;;;;;10.50;7.75;;;;;13.85;56.01;101185.44;2394345;28;45557;-84
2022/02/18 00:45:20;;;;;;;;;12.50;8.00;;;;;13.86;56.42;101187.13;2394485;28;45218;-83
2022/02/18 00:46:30;;;;;;;;;12.75;7.25;;;;;13.84;56.17;101184.56;2394585;28;46532;-85
2022/02/18 00:47:40;;;;;;;;;13.75;7.25;;;;;13.85;56.58;101182.78;2394483;28;45181;-85
2022/02/18 00:48:51;;;;;;;;;7.25;6.25;;;;;13.84;56.55;101178.41;2394426;28;46282;-86
2022/02/18 00:50:02;;;;;;;;;12.50;8.00;;;;;13.82;56.57;101165.28;2394263;28;45239;-87
2022/02/18 00:51:12;;;;;;;;;7.50;5.75;;;;;13.86;56.75;101162.50;2394283;28;45277;-87
2022/02/18 00:52:22;;;;;;;;;6.00;5.00;;;;;13.84;56.82;101152.88;2393647;28;44845;-87
2022/02/18 00:53:33;;;;;;;;;5.75;4.50;;;;;13.84;56.65;101152.88;2393864;28;45507;-86
2022/02/18 00:54:44;;;;;;;;;6.00;4.75;;;;;13.84;56.35;101146.72;2394602;28;45306;-86
2022/02/18 00:55:54;;;;;;;;;9.50;5.50;;;;;13.84;56.68;101144.94;2394240;28;45300;-85
2022/02/18 00:57:05;;;;;;;;;6.25;5.75;;;;;13.89;56.88;101155.31;2393198;28;45337;-84
2022/02/18 00:58:15;;;;;;;;;8.50;7.25;;;;;13.87;56.78;101143.97;2393790;28;46193;-86
2022/02/18 00:59:25;;;;;;;;;12.50;6.25;;;;;13.90;56.84;101140.34;2394528;28;45349;-86
2022/02/18 01:00:36;;;;;;;;;7.50;4.50;;;;;13.87;56.79;101140.44;2393540;28;47254;-86
2022/02/18 01:01:47;;;;;;;;;8.00;4.75;;;;;13.88;56.85;101131.59;2386844;28;45368;-86
2022/02/18 01:02:58;;;;;;;;;9.50;6.75;;;;;13.87;57.39;101130.75;2389936;28;45687;-87
2022/02/18 01:04:08;;;;;;;;;8.00;5.00;;;;;13.88;57.12;101129.81;2394513;28;45176;-87
2022/02/18 01:05:19;;;;;;;;;6.50;5.50;;;;;13.89;57.51;101130.66;2394016;28;46255;-87
2022/02/18 01:06:29;;;;;;;;;8.25;7.25;;;;;13.89;56.95;101128.91;2394357;28;45448;-87
2022/02/18 01:07:41;;;;;;;;;7.50;5.00;;;;;13.93;56.86;101132.25;2393527;28;46434;-87
2022/02/18 01:08:52;;;;;;;;;9.00;5.25;;;;;13.90;57.02;101133.25;2393855;28;45287;-87
2022/02/18 01:10:07;;;;;;;;;10.50;5.75;;;;;13.93;57.12;101130.47;2394184;28;45668;-87
2022/02/18 01:11:17;;;;;;;;;8.25;8.00;;;;;13.93;57.27;101135.75;2394309;28;44738;-88
2022/02/18 01:12:27;;;;;;;;;7.00;5.00;;;;;13.94;57.20;101126.94;2394296;28;45497;-87
2022/02/18 01:13:38;;;;;;;;;10.50;5.50;;;;;13.92;56.99;101122.63;2394140;28;45244;-88
2022/02/18 01:14:49;;;;;;;;;7.50;6.75;;;;;13.95;57.22;101123.34;2394360;28;45242;-91
2022/02/18 01:15:59;;;;;;;;;7.75;5.25;;;;;13.94;57.24;101124.28;2393576;28;45298;-91
2022/02/18 01:17:09;;;;;;;;;7.25;6.50;;;;;13.92;56.90;101117.34;2393618;28;45227;-91
2022/02/18 01:18:21;;;;;;;;;11.50;8.00;;;;;13.92;57.09;101112.91;2394578;28;45220;-91
2022/02/18 01:19:32;;;;;;;;;5.75;4.25;;;;;13.93;57.23;101111.97;2394067;28;45344;-90
2022/02/18 01:20:42;;;;;;;;;8.50;6.75;;;;;13.93;57.01;101109.34;2398339;28;44568;-93
2022/02/18 01:21:52;;;;;;;;;11.25;6.50;;;;;13.91;57.25;101097.97;2401660;28;48254;-93
2022/02/18 01:23:03;;;;;;;;;7.75;6.25;;;;;13.93;57.41;101096.13;2393922;28;44783;-93
2022/02/18 01:24:13;;;;;;;;;5.25;5.25;;;;;13.94;57.30;101094.34;2403818;28;48387;-94
2022/02/18 01:25:24;;;;;;;;;13.25;7.00;;;;;13.93;57.44;101085.56;2399690;28;44620;-93
2022/02/18 01:26:35;;;;;;;;;8.75;6.75;;;;;13.93;57.31;101082.03;2393377;28;45360;-93
2022/02/18 01:27:45;;;;;;;;;8.50;6.25;;;;;13.92;57.26;101080.34;2393241;28;45488;-89
2022/02/18 01:28:56;;;;;;;;;9.00;5.50;;;;;13.92;57.41;101080.34;2393304;28;46454;-88
2022/02/18 01:30:07;;;;;;;;;6.25;5.25;;;;;13.92;57.67;101083.84;2394231;28;45286;-88
2022/02/18 01:31:17;;;;;;;;;7.50;4.50;;;;;13.93;57.77;101082.91;2399380;28;46468;-88
2022/02/18 01:32:28;;;;;;;;;9.00;6.75;;;;;13.95;57.68;101074.94;2393553;28;45276;-89
2022/02/18 01:33:39;;;;;;;;;5.25;4.00;;;;;13.93;57.53;101069.69;2393369;28;46470;-87
2022/02/18 01:34:49;;;;;;;;;8.25;5.75;;;;;13.93;57.91;101077.63;2393529;28;45214;-86
2022/02/18 01:36:00;;;;;;;;;8.75;7.75;;;;;13.93;58.13;101064.41;2394173;28;45226;-87
2022/02/18 01:37:10;;;;;;;;;11.75;4.25;;;;;13.90;58.16;101056.59;2394147;28;45282;-86
2022/02/18 01:38:21;;;;;;;;;8.00;7.00;;;;;13.93;58.45;101060.91;2393186;28;47908;-88
2022/02/18 01:39:32;;;;;;;;;9.00;5.75;;;;;13.93;58.99;101056.50;2393724;28;45543;-89
2022/02/18 01:40:43;;;;;;;;;8.50;6.00;;;;;13.91;59.00;101053.06;2397972;28;46430;-91
2022/02/18 01:41:53;;;;;;;;;5.00;3.25;;;;;13.90;59.37;101051.31;2396051;28;44698;-91
2022/02/18 01:43:04;;;;;;;;;9.00;5.25;;;;;13.90;59.34;101046.03;2393497;28;46614;-87
2022/02/18 01:44:41;;;;;;;;;7.50;5.00;;;;;13.92;59.68;101043.34;2394030;28;45361;-87
2022/02/18 01:45:51;;;;;;;;;9.75;7.25;;;;;13.88;60.03;101032.03;2393770;28;45317;-87
2022/02/18 01:47:03;;;;;;;;;9.50;6.75;;;;;13.90;60.06;101027.53;2394162;28;44624;-88
2022/02/18 01:48:14;;;;;;;;;4.25;4.25;;;;;13.90;60.36;101019.63;2393130;28;47455;-87
2022/02/18 01:49:24;;;;;;;;;6.75;5.00;;;;;13.90;60.61;101014.34;2393709;28;45256;-85
2022/02/18 01:50:35;;;;;;;;;7.75;5.50;;;;;13.90;60.81;101013.50;2396215;28;45446;-87
2022/02/18 01:51:45;;;;;;;;;8.50;6.00;;;;;13.91;60.70;101015.19;2400352;28;45435;-87
2022/02/18 01:52:58;;;;;;;;;8.75;7.75;;;;;13.94;61.17;101015.06;2393299;28;47208;-86
2022/02/18 01:54:08;;;;;;;;;9.75;8.00;;;;;13.92;60.85;101011.66;2393677;28;45206;-87
2022/02/18 01:55:21;;;;;;;;;5.00;4.00;;;;;13.90;61.26;101013.50;2393877;28;45384;-87
2022/02/18 01:56:31;;;;;;;;;6.75;5.50;;;;;13.93;61.29;101016.84;2393959;28;45167;-85
2022/02/18 01:57:54;;;;;;;;;7.25;5.50;;;;;13.91;61.69;101013.41;2393856;28;45202;-83
2022/02/18 01:59:04;;;;;;;;;5.25;5.25;;;;;13.91;61.59;101010.78;2394148;28;45195;-83
2022/02/18 02:00:18;;;;;;;;;6.00;5.75;;;;;13.93;61.90;101001.00;2393944;28;46369;-83
2022/02/18 02:01:28;;;;;;;;;6.75;6.50;;;;;13.93;61.89;100993.06;2390834;28;45242;-85
2022/02/18 02:02:40;;;;;;;;;6.75;5.75;;;;;13.93;61.99;100992.22;2393894;28;46303;-84
2022/02/18 02:03:50;;;;;;;;;8.75;7.25;;;;;13.94;62.25;100989.53;2394031;28;45205;-85
2022/02/18 02:05:00;;;;;;;;;6.75;3.00;;;;;13.91;62.41;100981.72;2392556;28;47335;-86
2022/02/18 02:06:13;;;;;;;;;10.25;8.50;;;;;13.92;61.72;100975.53;2393429;28;45234;-86
2022/02/18 02:07:24;;;;;;;;;6.75;5.50;;;;;13.93;62.54;100977.22;2393919;28;45272;-85
2022/02/18 02:08:36;;;;;;;;;10.00;7.50;;;;;13.91;62.73;100971.16;2393191;28;44797;-85
2022/02/18 02:09:46;;;;;;;;;6.00;5.00;;;;;13.91;63.01;100967.63;2393088;28;45320;-85
2022/02/18 02:10:57;;;;;;;;;12.25;6.50;;;;;13.89;62.57;100973.00;2396848;28;45147;-85
2022/02/18 02:12:07;;;;;;;;;6.75;6.75;;;;;13.87;63.24;100961.66;2393387;28;45552;-86
2022/02/18 02:13:34;;;;;;;;;8.50;7.50;;;;;13.90;63.29;100965.94;2393187;28;45368;-86
2022/02/18 02:14:45;;;;;;;;;4.00;0.00;;;;;13.87;63.39;100966.94;2393004;28;46812;-85
2022/02/18 02:15:55;;;;;;;;;7.00;6.25;;;;;13.86;63.59;100962.56;2393515;28;45338;-85
2022/02/18 02:17:05;;;;;;;;;5.00;5.00;;;;;13.87;63.74;100961.66;2393662;28;45466;-86
2022/02/18 02:18:16;;;;;;;;;7.25;7.25;;;;;13.87;63.38;100960.78;2393869;28;45242;-86
2022/02/18 02:19:27;;;;;;;;;4.25;4.25;;;;;13.84;63.21;100962.63;2393075;28;46971;-86
2022/02/18 02:20:37;;;;;;;;;7.50;6.25;;;;;13.85;63.94;100952.94;2388560;28;44844;-86
2022/02/18 02:21:53;;;;;;;;;6.75;5.00;;;;;13.86;63.67;100957.28;2390487;28;47351;-86
2022/02/18 02:23:03;;;;;;;;;6.25;6.25;;;;;13.85;63.70;100947.66;2393462;28;45197;-86
2022/02/18 02:24:14;;;;;;;;;7.50;6.00;;;;;13.83;63.85;100939.78;2393748;28;46571;-86
2022/02/18 02:25:34;;;;;;;;;5.25;5.25;;;;;13.85;64.25;100931.78;2393020;28;45320;-85
2022/02/18 02:26:45;;;;;;;;;4.50;4.50;;;;;13.84;64.59;100924.78;2392846;28;46934;-85
2022/02/18 02:27:55;;;;;;;;;5.50;5.25;;;;;13.85;64.23;100931.78;2393324;28;45242;-86
2022/02/18 02:29:06;;;;;;;;;4.00;3.75;;;;;13.85;64.38;100926.50;2396678;28;45514;-86
2022/02/18 02:30:17;;;;;;;;;4.00;4.00;;;;;13.86;64.12;100928.22;2394833;28;45265;-85
2022/02/18 02:31:28;;;;;;;;;3.75;3.50;;;;;13.87;64.10;100923.78;2393532;28;46346;-86
2022/02/18 02:32:38;;;;;;;;;3.75;3.75;;;;;13.89;64.43;100928.09;2393778;28;45248;-85
2022/02/18 02:33:48;;;;;;;;;3.50;3.50;;;;;13.89;64.20;100936.00;2393735;28;45366;-85
2022/02/18 02:34:59;;;;;;;;;3.00;2.50;;;;;13.88;64.81;100931.63;2393317;28;45297;-85
2022/02/18 02:36:09;;;;;;;;;5.00;4.00;;;;;13.86;64.64;100917.63;2396204;28;45209;-85
2022/02/18 02:37:20;;;;;;;;;4.00;4.00;;;;;13.85;64.86;100918.59;2403268;28;44648;-85
2022/02/18 02:38:30;;;;;;;;;5.00;3.75;;;;;13.87;64.54;100914.09;2393638;28;46385;-85
2022/02/18 02:39:41;;;;;;;;;3.50;3.00;;;;;13.87;64.56;100916.72;2393676;28;45448;-86
2022/02/18 02:40:52;;;;;;;;;2.00;2.00;;;;;13.89;64.72;100906.94;2392843;28;47170;-86
2022/02/18 02:42:03;;;;;;;;;2.75;2.75;;;;;13.91;64.64;100910.38;2392773;28;45305;-86
2022/02/18 02:43:14;;;;;;;;;2.75;2.75;;;;;13.91;64.96;100902.44;2393257;28;45377;-85
2022/02/18 02:44:24;;;;;;;;;4.00;3.00;;;;;13.93;64.76;100897.94;2402383;28;44786;-86
2022/02/18 02:45:35;;;;;;;;;4.00;4.00;;;;;13.92;64.91;100896.25;2399665;28;45349;-86
2022/02/18 02:46:45;;;;;;;;;3.75;2.75;;;;;13.94;65.13;100899.69;2393807;28;45230;-87
2022/02/18 02:47:56;;;;;;;;;6.50;3.75;;;;;13.93;65.18;100897.94;2392550;28;47212;-87
2022/02/18 02:49:06;;;;;;;;;4.00;4.00;;;;;13.91;65.33;100883.94;2385986;28;45291;-87
2022/02/18 02:50:16;;;;;;;;;5.50;4.00;;;;;13.90;65.80;100892.78;2386921;28;46370;-87
2022/02/18 02:51:27;;;;;;;;;4.25;4.25;;;;;13.92;65.73;100876.88;2386241;28;45432;-81
2022/02/18 02:52:37;;;;;;;;;4.00;4.00;;;;;13.92;65.46;100876.88;2392792;28;48209;-82
2022/02/18 02:53:48;;;;;;;;;4.00;4.00;;;;;13.93;65.66;100868.88;2392904;28;44646;-88
2022/02/18 02:54:59;;;;;;;;;3.75;3.25;;;;;13.94;65.82;100872.38;2395966;28;46584;-85
2022/02/18 02:56:09;;;;;;;;;5.75;4.00;;;;;13.95;65.60;100868.84;2402216;28;45273;-85
2022/02/18 02:57:19;;;;;;;;;7.50;5.25;;;;;13.95;65.65;100864.38;2392933;28;46455;-86
2022/02/18 02:58:30;;;;;;;;;4.25;4.25;;;;;13.96;65.60;100859.97;2393606;28;45226;-82
2022/02/18 02:59:40;;;;;;;;;3.25;3.25;;;;;13.99;65.71;100853.69;2393244;28;46156;-83
2022/02/18 03:00:51;;;;;;;;;3.50;3.50;;;;;13.98;65.70;100849.31;2393734;28;45278;-83
2022/02/18 03:02:02;;;;;;;;;3.00;2.25;;;;;13.98;66.59;100857.25;2395089;28;45331;-83
2022/02/18 03:03:12;;;;;;;;;2.75;2.25;;;;;13.97;65.87;100842.31;2397474;28;45382;-81
2022/02/18 03:04:23;;;;;;;;;4.00;4.00;;;;;13.97;66.06;100840.53;2393375;28;45486;-81
2022/02/18 03:05:33;;;;;;;;;5.00;4.00;;;;;13.99;66.24;100828.13;2393353;28;45302;-81
2022/02/18 03:06:43;;;;;;;;;5.75;3.00;;;;;14.00;66.10;100828.97;2393279;28;46191;-81
2022/02/18 03:07:55;;;;;;;;;4.00;3.25;;;;;14.01;66.04;100825.41;2393609;28;45159;-81
2022/02/18 03:09:10;;;;;;;;;4.00;3.50;;;;;14.01;66.42;100828.03;2392596;28;48138;-81
2022/02/18 03:10:21;;;;;;;;;2.25;2.25;;;;;14.03;66.38;100832.31;2392931;28;45280;-87
2022/02/18 03:11:31;;;;;;;;;5.25;3.75;;;;;14.02;66.28;100820.06;2392715;28;46147;-88
2022/02/18 03:12:41;;;;;;;;;5.75;3.50;;;;;14.03;66.26;100818.25;2400384;28;45163;-88
2022/02/18 03:13:53;;;;;;;;;5.00;4.00;;;;;14.05;66.58;100819.06;2393328;28;46285;-88
2022/02/18 03:15:05;;;;;;;;;3.00;3.00;;;;;14.03;66.62;100819.13;2392745;28;45329;-86
2022/02/18 03:16:17;;;;;;;;;3.25;3.25;;;;;14.06;66.56;100810.19;2392742;28;45280;-87
2022/02/18 03:17:27;;;;;;;;;4.75;3.00;;;;;14.05;67.01;100811.13;2393448;28;45445;-87
2022/02/18 03:18:38;;;;;;;;;4.00;4.00;;;;;14.03;66.43;100802.38;2393307;28;46289;-86
2022/02/18 03:19:48;;;;;;;;;3.00;2.00;;;;;14.05;66.91;100806.69;2393330;28;45521;-86
2022/02/18 03:20:59;;;;;;;;;3.00;3.00;;;;;14.05;66.50;100800.56;2393377;28;46288;-85
2022/02/18 03:22:09;;;;;;;;;4.50;3.00;;;;;14.07;67.01;100802.16;2395861;28;44701;-85
2022/02/18 03:23:19;;;;;;;;;4.50;4.50;;;;;14.10;67.13;100797.69;2393174;28;47393;-85
2022/02/18 03:24:30;;;;;;;;;4.75;3.50;;;;;14.10;66.85;100798.53;2392581;28;45246;-84
2022/02/18 03:25:41;;;;;;;;;2.50;2.50;;;;;14.13;66.89;100808.09;2392532;28;45206;-85
2022/02/18 03:26:52;;;;;;;;;4.75;4.50;;;;;14.10;67.34;100801.19;2392625;28;45249;-85
2022/02/18 03:28:02;;;;;;;;;2.25;2.25;;;;;14.12;67.14;100815.19;2392744;28;45268;-85
2022/02/18 03:29:12;;;;;;;;;3.50;3.00;;;;;14.15;67.06;100815.03;2392777;28;45234;-85
2022/02/18 03:30:23;;;;;;;;;3.50;2.75;;;;;14.14;66.83;100813.34;2392689;28;45582;-86
2022/02/18 03:31:33;;;;;;;;;2.25;2.25;;;;;14.16;66.99;100808.84;2393115;28;45498;-83
2022/02/18 03:32:43;;;;;;;;;3.00;2.25;;;;;14.18;67.08;100806.09;2393232;28;45592;-83
2022/02/18 03:33:54;;;;;;;;;0.50;0.50;;;;;14.17;66.92;100794.66;2392652;28;44695;-83
2022/02/18 03:35:05;;;;;;;;;1.25;1.25;;;;;14.21;66.45;100791.88;2396041;28;45418;-83
2022/02/18 03:36:15;;;;;;;;;3.25;1.25;;;;;14.24;67.19;100804.97;2397985;28;45155;-83
2022/02/18 03:37:27;;;;;;;;;2.00;1.00;;;;;14.24;66.83;100791.75;2393189;28;46634;-83
2022/02/18 03:38:37;;;;;;;;;3.00;1.25;;;;;14.23;67.29;100790.88;2393541;28;44695;-83
2022/02/18 03:39:47;;;;;;;;;1.75;1.75;;;;;14.23;67.16;100793.53;2392968;28;46183;-83
2022/02/18 03:40:59;;;;;;;;;1.00;1.00;;;;;14.27;67.33;100794.25;2393338;28;45288;-83
2022/02/18 03:42:09;;;;;;;;;1.00;1.00;;;;;14.25;67.17;100791.66;2393242;28;45264;-83
2022/02/18 03:43:20;;;;;;;;;1.00;1.00;;;;;14.27;66.80;100786.31;2396582;28;45517;-83
2022/02/18 03:44:30;;;;;;;;;0.25;0.00;;;;;14.29;67.26;100781.81;2395351;28;45490;-83
2022/02/18 03:45:41;;;;;;;;;1.00;1.00;;;;;14.33;67.30;100793.09;2393317;28;44680;-83
2022/02/18 03:46:51;;;;;;;;;1.00;1.00;;;;;14.35;67.13;100792.09;2393194;28;46217;-83
2022/02/18 03:48:02;;;;;;;;;2.00;1.00;;;;;14.33;67.26;100790.44;2393306;28;45418;-83
2022/02/18 03:49:12;;;;;;;;;1.00;0.50;;;;;14.33;67.60;100788.66;2393185;28;46472;-83
2022/02/18 03:50:22;;;;;;;;;0.00;0.00;;;;;14.36;67.29;100785.00;2395620;28;44727;-83
2022/02/18 03:51:33;;;;;;;;;0.75;0.75;;;;;14.35;67.35;100786.78;2394297;28;45177;-80
2022/02/18 03:52:44;;;;;;;;;0.00;0.00;;;;;14.39;67.34;100787.50;2392549;28;45306;-81
2022/02/18 03:53:54;;;;;;;;;1.75;1.75;;;;;14.39;67.03;100783.09;2392634;28;46102;-81
2022/02/18 03:55:05;;;;;;;;;1.00;1.00;;;;;14.38;67.61;100770.78;2393059;28;45405;-81
2022/02/18 03:56:16;;;;;;;;;0.50;0.50;;;;;14.39;67.34;100767.22;2393153;28;45352;-81
2022/02/18 03:57:26;;;;;;;;;0.00;0.00;;;;;14.38;67.36;100773.44;2392618;28;45369;-80
2022/02/18 03:58:37;;;;;;;;;1.00;0.00;;;;;14.40;67.85;100776.00;2385304;28;46331;-81
2022/02/18 03:59:47;;;;;;;;;0.00;0.00;;;;;14.39;67.79;100772.50;2392828;28;45349;-81
2022/02/18 04:00:57;;;;;;;;;0.00;0.00;;;;;14.42;67.71;100781.22;2393358;28;45326;-81
2022/02/18 04:02:08;;;;;;;;;0.00;0.00;;;;;14.41;67.66;100775.06;2401895;28;45224;-81
2022/02/18 04:03:18;;;;;;;;;0.00;0.00;;;;;14.42;67.92;100784.69;2399340;28;45310;-81
2022/02/18 04:04:29;;;;;;;;;0.00;0.00;;;;;14.40;67.83;100776.84;2392615;28;44676;-83
2022/02/18 04:05:39;;;;;;;;;0.00;0.00;;;;;14.42;67.52;100774.13;2392206;28;45253;-82
2022/02/18 04:06:49;;;;;;;;;2.00;1.00;;;;;14.42;67.01;100766.19;2393285;28;45358;-82
2022/02/18 04:08:00;;;;;;;;;0.00;0.00;;;;;14.42;67.40;100763.53;2392326;28;45968;-82
2022/02/18 04:09:11;;;;;;;;;0.00;0.00;;;;;14.39;67.16;100756.66;2392953;28;44686;-82
2022/02/18 04:10:21;;;;;;;;;0.00;0.00;;;;;14.39;66.88;100764.59;2394860;28;46218;-82
2022/02/18 04:11:31;;;;;;;;;0.00;0.00;;;;;14.38;67.10;100754.91;2394815;28;44592;-82
2022/02/18 04:12:42;;;;;;;;;0.00;0.00;;;;;14.39;67.32;100756.66;2394691;28;45348;-83
2022/02/18 04:13:52;;;;;;;;;2.00;0.25;;;;;14.39;67.13;100750.50;2393826;28;45251;-83
2022/02/18 04:15:03;;;;;;;;;0.00;0.00;;;;;14.40;67.05;100749.53;2394081;28;46273;-87
2022/02/18 04:16:14;;;;;;;;;0.00;0.00;;;;;14.39;66.85;100740.78;2394780;28;44643;-87
2022/02/18 04:17:27;;;;;;;;;0.00;0.00;;;;;14.40;67.06;100739.84;2394774;28;46188;-87
2022/02/18 04:18:37;;;;;;;;;0.00;0.00;;;;;14.42;66.77;100733.63;2394506;28;44844;-87
2022/02/18 04:19:48;;;;;;;;;0.75;0.00;;;;;14.39;66.82;100746.06;2394419;28;45430;-87
2022/02/18 04:20:58;;;;;;;;;0.00;0.00;;;;;14.38;66.94;100747.00;2394628;28;45277;-87
2022/02/18 04:22:09;;;;;;;;;0.00;0.00;;;;;14.37;67.02;100737.34;2394649;28;45583;-86
2022/02/18 04:23:19;;;;;;;;;0.00;0.00;;;;;14.37;66.90;100744.44;2394845;28;45167;-86
2022/02/18 04:24:30;;;;;;;;;0.00;0.00;;;;;14.37;67.00;100734.69;2394557;28;46267;-86
2022/02/18 04:25:41;;;;;;;;;0.00;0.00;;;;;14.40;66.43;100744.25;2394547;28;45452;-87
2022/02/18 04:26:51;;;;;;;;;0.00;0.00;;;;;14.41;66.87;100748.63;2394585;28;45343;-87
2022/02/18 04:28:05;;;;;;;;;0.00;0.00;;;;;14.39;66.72;100732.84;2394723;28;45163;-86
2022/02/18 04:29:15;;;;;;;;;0.00;0.00;;;;;14.40;67.02;100733.69;2400062;28;45372;-87
2022/02/18 04:30:26;;;;;;;;;0.00;0.00;;;;;14.39;66.87;100729.34;2396089;28;45366;-86
2022/02/18 04:31:37;;;;;;;;;1.00;0.00;;;;;14.43;66.93;100730.03;2403091;28;46230;-85
2022/02/18 04:32:49;;;;;;;;;0.00;0.00;;;;;14.43;66.85;100724.75;2393953;28;45311;-85
2022/02/18 04:33:59;;;;;;;;;0.00;0.00;;;;;14.42;66.78;100718.59;2394111;28;45514;-84
2022/02/18 04:35:11;;;;;;;;;0.50;0.00;;;;;14.40;66.71;100715.19;2394353;28;45151;-84
2022/02/18 04:36:21;;;;;;;;;0.75;0.75;;;;;14.42;66.59;100717.75;2394554;28;45368;-82
2022/02/18 04:37:32;;;;;;;;;0.00;0.00;;;;;14.43;66.83;100720.31;2394799;28;45301;-83
2022/02/18 04:38:42;;;;;;;;;0.00;0.00;;;;;14.43;66.72;100714.16;2394858;28;45223;-83
2022/02/18 04:39:53;;;;;;;;;0.00;0.00;;;;;14.45;67.00;100707.00;2401532;28;45352;-83
2022/02/18 04:41:04;;;;;;;;;0.00;0.00;;;;;14.45;66.92;100714.94;2393771;28;46167;-83
2022/02/18 04:42:14;;;;;;;;;1.50;0.00;;;;;14.44;66.74;100710.59;2394083;28;45354;-83
2022/02/18 04:43:25;;;;;;;;;0.00;0.00;;;;;14.45;66.61;100710.50;2394428;28;45388;-84
2022/02/18 04:44:35;;;;;;;;;1.00;1.00;;;;;14.46;66.57;100701.66;2393724;28;45349;-83
2022/02/18 04:45:45;;;;;;;;;0.00;0.00;;;;;14.45;66.37;100701.72;2393652;28;45445;-86
2022/02/18 04:46:56;;;;;;;;;0.00;0.00;;;;;14.42;66.32;100700.09;2394730;28;44662;-86
2022/02/18 04:48:06;;;;;;;;;0.00;0.00;;;;;14.45;66.55;100701.72;2394414;28;45342;-86
2022/02/18 04:49:16;;;;;;;;;0.00;0.00;;;;;14.46;66.42;100709.59;2395638;28;45458;-86
2022/02/18 04:50:27;;;;;;;;;0.00;0.00;;;;;14.45;66.57;100694.66;2393278;28;47170;-86
2022/02/18 04:51:37;;;;;;;;;0.00;0.00;;;;;14.46;66.24;100695.50;2387145;28;45306;-85
2022/02/18 04:52:48;;;;;;;;;0.00;0.00;;;;;14.47;66.41;100700.72;2393831;28;46127;-86
2022/02/18 04:53:58;;;;;;;;;1.25;0.00;;;;;14.45;66.27;100689.34;2394519;28;45234;-84
2022/02/18 04:55:09;;;;;;;;;0.00;0.00;;;;;14.45;66.30;100681.44;2394274;28;46433;-85
2022/02/18 04:56:19;;;;;;;;;0.00;0.00;;;;;14.45;66.17;100681.44;2393837;28;45143;-85
2022/02/18 04:57:29;;;;;;;;;0.00;0.00;;;;;14.48;66.46;100691.00;2393659;28;46383;-86
2022/02/18 04:58:40;;;;;;;;;1.00;1.00;;;;;14.47;66.31;100689.31;2396219;28;44664;-87
2022/02/18 04:59:50;;;;;;;;;0.00;0.00;;;;;14.49;66.30;100695.38;2400376;28;48486;-86
2022/02/18 05:01:00;;;;;;;;;2.00;1.00;;;;;14.47;66.42;100684.84;2394144;28;44624;-86
2022/02/18 05:02:11;;;;;;;;;0.00;0.00;;;;;14.47;66.04;100684.84;2394323;28;46176;-86
2022/02/18 05:03:21;;;;;;;;;0.00;0.00;;;;;14.46;66.20;100692.88;2399575;28;45266;-86
2022/02/18 05:04:32;;;;;;;;;0.50;0.00;;;;;14.43;66.13;100682.44;2402278;28;46434;-86
2022/02/18 05:05:42;;;;;;;;;0.00;0.00;;;;;14.45;66.15;100677.91;2394254;28;45230;-87
2022/02/18 05:06:53;;;;;;;;;0.25;0.00;;;;;14.42;66.43;100667.53;2394325;28;46261;-87
2022/02/18 05:08:03;;;;;;;;;0.00;0.00;;;;;14.45;66.43;100664.69;2397524;28;44778;-86
2022/02/18 05:09:14;;;;;;;;;0.25;0.00;;;;;14.45;66.35;100667.34;2394085;28;45380;-88
2022/02/18 05:10:24;;;;;;;;;0.00;0.00;;;;;14.47;66.51;100666.34;2397297;28;45289;-88
2022/02/18 05:11:34;;;;;;;;;0.00;0.00;;;;;14.46;66.37;100667.28;2394168;28;45419;-89
2022/02/18 05:12:45;;;;;;;;;0.00;0.00;;;;;14.48;66.34;100676.00;2393732;28;45448;-88
2022/02/18 05:13:55;;;;;;;;;0.00;0.00;;;;;14.48;66.16;100667.19;2393705;28;45357;-87
2022/02/18 05:15:06;;;;;;;;;0.00;0.00;;;;;14.48;66.18;100661.91;2393925;28;45389;-92
2022/02/18 05:16:17;;;;;;;;;0.00;0.00;;;;;14.48;66.17;100653.97;2396538;28;45482;-90
2022/02/18 05:17:27;;;;;;;;;2.50;1.00;;;;;14.44;66.14;100657.72;2403210;28;45248;-87
2022/02/18 05:18:38;;;;;;;;;1.50;0.00;;;;;14.42;65.99;100646.38;2400148;28;47099;-90
2022/02/18 05:19:48;;;;;;;;;0.00;0.00;;;;;14.44;65.79;100641.84;2393611;28;45270;-91
2022/02/18 05:20:58;;;;;;;;;0.00;0.00;;;;;14.44;66.21;100628.63;2394110;28;45539;-93
2022/02/18 05:22:09;;;;;;;;;0.75;0.00;;;;;14.45;66.08;100643.53;2393986;28;45243;-92
2022/02/18 05:23:19;;;;;;;;;1.00;0.00;;;;;14.43;66.20;100625.13;2393957;28;46982;-91
2022/02/18 05:24:29;;;;;;;;;1.00;0.00;;;;;14.43;66.25;100625.13;2386890;28;45219;-90
2022/02/18 05:25:40;;;;;;;;;0.00;0.00;;;;;14.45;66.32;100630.31;2395629;28;48118;-90
2022/02/18 05:26:50;;;;;;;;;0.00;0.00;;;;;14.47;66.20;100625.84;2393603;28;45163;-92
2022/02/18 05:28:04;;;;;;;;;0.00;0.00;;;;;14.48;66.33;100632.81;2396031;28;48233;-90
2022/02/18 05:29:15;;;;;;;;;0.00;0.00;;;;;14.48;66.21;100627.53;2400184;28;45301;-91